Time;durP1;ratioP1;P1;durP2;ratioP2;P2;SDS_P1;SDS_P2;PMS_P1;PMS_P2;Temp;Humidity;BMP_temperature;BMP_pressure;BME280_temperature;BME280_humidity;BME280_pressure;Samples;Min_cycle;Max_cycle;Signal;HPM_P1;HPM_P2
2020/12/28 00:01:31;;;;;;;9.57;6.63;;;5.90;94.70;;;;;;5056012;28;20033;-78
2020/12/28 00:03:56;;;;;;;9.77;6.70;;;5.80;94.70;;;;;;5057447;28;20036;-79
2020/12/28 00:06:22;;;;;;;9.53;6.30;;;5.80;94.70;;;;;;5056046;28;20501;-79
2020/12/28 00:08:48;;;;;;;10.90;7.13;;;5.80;94.70;;;;;;5057093;28;20104;-79
2020/12/28 00:11:18;;;;;;;11.60;8.10;;;5.90;94.70;;;;;;5055834;28;20512;-79
2020/12/28 00:13:44;;;;;;;12.57;8.57;;;5.80;94.70;;;;;;5055745;28;20441;-79
2020/12/28 00:16:14;;;;;;;14.57;9.70;;;5.80;94.60;;;;;;5056040;28;20109;-79
2020/12/28 00:18:41;;;;;;;12.27;8.27;;;5.80;94.60;;;;;;5055865;28;20477;-79
2020/12/28 00:21:07;;;;;;;11.37;7.93;;;5.80;94.60;;;;;;5058112;28;20036;-79
2020/12/28 00:23:33;;;;;;;11.60;7.73;;;5.80;94.70;;;;;;5057018;28;20044;-79
2020/12/28 00:25:58;;;;;;;13.13;9.27;;;5.80;94.70;;;;;;5055721;28;20120;-79
2020/12/28 00:28:24;;;;;;;13.10;8.43;;;5.80;94.70;;;;;;5055542;28;20515;-79
2020/12/28 00:30:49;;;;;;;14.87;9.10;;;5.80;94.60;;;;;;5070517;28;20115;-78
2020/12/28 00:33:15;;;;;;;12.90;8.97;;;5.80;94.60;;;;;;5058782;28;20490;-80
2020/12/28 00:35:43;;;;;;;14.27;9.87;;;5.80;94.60;;;;;;5059300;28;20078;-80
2020/12/28 00:38:08;;;;;;;17.03;9.90;;;5.90;94.60;;;;;;5077295;28;20037;-80
2020/12/28 00:40:34;;;;;;;16.17;11.07;;;5.90;94.60;;;;;;5062295;28;20392;-80
2020/12/28 00:42:59;;;;;;;14.47;9.77;;;5.80;94.60;;;;;;5056568;28;20033;-80
2020/12/28 00:45:25;;;;;;;15.00;10.53;;;5.90;94.60;;;;;;5055522;28;20405;-79
2020/12/28 00:47:51;;;;;;;16.40;10.83;;;5.90;94.60;;;;;;5055324;28;20036;-80
2020/12/28 00:50:16;;;;;;;12.67;9.23;;;5.90;94.60;;;;;;5065723;28;20025;-80
2020/12/28 00:52:42;;;;;;;12.97;9.10;;;5.90;94.60;;;;;;5075284;28;20412;-80
2020/12/28 00:55:07;;;;;;;14.70;9.97;;;5.90;94.60;;;;;;5076316;28;20036;-80
2020/12/28 00:57:33;;;;;;;16.30;10.53;;;5.80;94.50;;;;;;5058302;28;20058;-80
2020/12/28 00:59:58;;;;;;;12.70;9.33;;;5.90;94.60;;;;;;5069067;28;20037;-81
2020/12/28 01:02:24;;;;;;;13.73;10.10;;;5.90;94.60;;;;;;5055187;28;20489;-81
2020/12/28 01:04:49;;;;;;;18.03;10.53;;;5.80;94.50;;;;;;5054867;28;20048;-80
2020/12/28 01:07:15;;;;;;;16.70;10.20;;;5.90;94.50;;;;;;5056128;28;20494;-81
2020/12/28 01:09:41;;;;;;;15.90;10.77;;;5.90;94.50;;;;;;5055012;28;20021;-81
2020/12/28 01:12:06;;;;;;;14.93;10.00;;;5.90;94.50;;;;;;5054024;28;20049;-81
2020/12/28 01:14:32;;;;;;;14.07;9.67;;;5.90;94.50;;;;;;5037988;28;20492;-80
2020/12/28 01:16:57;;;;;;;16.63;10.50;;;5.90;94.50;;;;;;5037882;28;20059;-80
2020/12/28 01:19:23;;;;;;;14.83;10.17;;;5.90;94.40;;;;;;5056874;28;20082;-80
2020/12/28 01:21:48;;;;;;;16.30;10.80;;;5.90;94.40;;;;;;5055977;28;20037;-80
2020/12/28 01:24:14;;;;;;;15.57;10.17;;;5.90;94.40;;;;;;5054490;28;20503;-80
2020/12/28 01:26:40;;;;;;;13.13;9.60;;;5.90;94.40;;;;;;5054324;28;20104;-80
2020/12/28 01:29:05;;;;;;;12.97;8.33;;;5.90;94.40;;;;;;5055710;28;20043;-81
2020/12/28 01:31:31;;;;;;;12.10;8.73;;;5.90;94.40;;;;;;5073214;28;20438;-80
2020/12/28 01:33:57;;;;;;;11.90;8.77;;;5.90;94.40;;;;;;5074409;28;20119;-80
2020/12/28 01:36:23;;;;;;;13.50;9.10;;;5.90;94.50;;;;;;5057678;28;20098;-80
2020/12/28 01:38:48;;;;;;;11.43;8.37;;;5.90;94.40;;;;;;5057576;28;20080;-80
2020/12/28 01:41:14;;;;;;;14.47;9.10;;;5.80;94.40;;;;;;5072989;28;20029;-80
2020/12/28 01:43:39;;;;;;;10.83;7.60;;;5.90;94.40;;;;;;5075459;28;20086;-80
2020/12/28 01:46:07;;;;;;;11.90;8.43;;;5.90;94.40;;;;;;5074194;28;20028;-80
2020/12/28 01:48:34;;;;;;;11.27;7.70;;;5.90;94.40;;;;;;5057284;28;20387;-80
2020/12/28 01:50:59;;;;;;;11.03;7.37;;;5.90;94.40;;;;;;5059923;28;20037;-80
2020/12/28 01:53:26;;;;;;;10.67;7.33;;;5.90;94.40;;;;;;5055301;28;20027;-80
2020/12/28 01:56:01;;;;;;;10.07;6.73;;;5.90;94.40;;;;;;5053879;28;20019;-80
2020/12/28 01:58:28;;;;;;;9.80;6.87;;;5.90;94.40;;;;;;5040722;28;20082;-80
2020/12/28 02:00:54;;;;;;;9.87;6.77;;;5.90;94.40;;;;;;5054937;28;20025;-80
2020/12/28 02:03:20;;;;;;;9.90;6.43;;;5.90;94.30;;;;;;5055376;28;20087;-80
2020/12/28 02:05:46;;;;;;;9.37;5.67;;;5.90;94.30;;;;;;5053605;28;20111;-80
2020/12/28 02:08:12;;;;;;;10.40;5.70;;;5.90;94.60;;;;;;5053991;28;20029;-80
2020/12/28 02:10:37;;;;;;;10.33;6.33;;;5.90;94.30;;;;;;5053367;28;20614;-80
2020/12/28 02:13:03;;;;;;;9.27;5.90;;;5.90;94.30;;;;;;5054836;28;20074;-79
2020/12/28 02:15:28;;;;;;;9.13;5.73;;;5.90;94.20;;;;;;5055068;28;20063;-80
2020/12/28 02:17:54;;;;;;;11.03;6.10;;;5.90;94.20;;;;;;5053490;28;20020;-81
2020/12/28 02:20:20;;;;;;;10.17;6.40;;;5.90;94.20;;;;;;5055909;28;20036;-80
2020/12/28 02:22:45;;;;;;;10.33;5.43;;;5.90;94.10;;;;;;5074809;28;20032;-80
2020/12/28 02:25:11;;;;;;;9.70;5.67;;;5.80;94.10;;;;;;5073387;28;20103;-80
2020/12/28 02:27:36;;;;;;;8.23;5.63;;;5.80;94.10;;;;;;5073201;28;20029;-80
2020/12/28 02:30:04;;;;;;;7.90;5.73;;;5.80;94.10;;;;;;5056240;28;20025;-80
2020/12/28 02:32:30;;;;;;;7.07;5.50;;;5.80;94.00;;;;;;5053217;28;20017;-80
2020/12/28 02:34:55;;;;;;;8.57;5.80;;;5.80;94.00;;;;;;5054295;28;20084;-80
2020/12/28 02:37:21;;;;;;;9.50;6.03;;;5.80;94.10;;;;;;5036486;28;20025;-81
2020/12/28 02:39:47;;;;;;;9.03;5.53;;;5.80;94.00;;;;;;5068634;28;20078;-80
2020/12/28 02:42:12;;;;;;;11.03;5.90;;;5.80;94.00;;;;;;5056393;28;20033;-80
2020/12/28 02:44:44;;;;;;;9.33;6.23;;;5.80;94.00;;;;;;5111690;27;20375;-78
2020/12/28 02:47:10;;;;;;;9.27;6.07;;;5.80;94.10;;;;;;5111758;28;20386;-78
2020/12/28 02:49:35;;;;;;;12.17;6.90;;;5.80;94.00;;;;;;5109067;28;20028;-78
2020/12/28 02:52:01;;;;;;;13.83;5.97;;;5.70;94.00;;;;;;5109972;28;20377;-78
2020/12/28 02:54:27;;;;;;;8.60;5.80;;;5.70;94.00;;;;;;5111961;28;20111;-78
2020/12/28 02:56:52;;;;;;;12.90;6.67;;;5.70;94.00;;;;;;5108078;28;20119;-78
2020/12/28 02:59:18;;;;;;;11.43;7.23;;;5.70;94.00;;;;;;5092909;28;20031;-79
2020/12/28 03:01:43;;;;;;;12.97;6.70;;;5.70;93.90;;;;;;5109759;28;20032;-79
2020/12/28 03:04:09;;;;;;;11.07;6.47;;;5.70;93.90;;;;;;5109764;28;20118;-79
2020/12/28 03:06:35;;;;;;;12.13;7.67;;;5.70;94.00;;;;;;5104552;28;20123;-79
2020/12/28 03:09:00;;;;;;;12.70;7.53;;;5.70;93.80;;;;;;5090584;28;20422;-79
2020/12/28 03:11:26;;;;;;;11.90;7.17;;;5.70;93.80;;;;;;5090592;28;20111;-78
2020/12/28 03:13:51;;;;;;;13.27;7.23;;;5.70;93.70;;;;;;5089278;28;20365;-79
2020/12/28 03:16:17;;;;;;;11.23;7.20;;;5.70;93.70;;;;;;5091455;28;20037;-79
2020/12/28 03:18:42;;;;;;;14.77;8.53;;;5.70;93.70;;;;;;5089232;28;20037;-79
2020/12/28 03:21:08;;;;;;;13.60;8.13;;;5.70;93.60;;;;;;5089191;28;20024;-79
2020/12/28 03:23:34;;;;;;;13.60;8.57;;;5.60;93.40;;;;;;5089014;28;20032;-79
2020/12/28 03:25:59;;;;;;;12.87;8.37;;;5.60;93.50;;;;;;5089587;28;20431;-79
2020/12/28 03:28:25;;;;;;;13.30;8.67;;;5.60;93.40;;;;;;5110348;28;20038;-79
2020/12/28 03:30:50;;;;;;;15.13;8.47;;;5.60;93.30;;;;;;5109117;28;20077;-79
2020/12/28 03:33:16;;;;;;;15.97;8.23;;;5.60;93.30;;;;;;5109213;28;20028;-79
2020/12/28 03:35:43;;;;;;;16.20;8.40;;;5.60;93.30;;;;;;5095456;28;20473;-79
2020/12/28 03:38:09;;;;;;;13.87;7.63;;;5.60;93.00;;;;;;5088884;28;20032;-79
2020/12/28 03:40:34;;;;;;;12.60;6.97;;;5.60;93.10;;;;;;5088928;28;20035;-78
2020/12/28 03:43:00;;;;;;;13.93;7.87;;;5.60;93.10;;;;;;5071644;28;20044;-79
2020/12/28 03:45:25;;;;;;;11.80;6.80;;;5.60;93.00;;;;;;5099716;28;20361;-79
2020/12/28 03:47:51;;;;;;;12.37;7.23;;;5.60;93.10;;;;;;5108996;28;20024;-79
2020/12/28 03:50:17;;;;;;;15.53;7.67;;;5.50;92.90;;;;;;5091953;28;20104;-79
2020/12/28 03:52:42;;;;;;;13.30;7.37;;;5.50;92.80;;;;;;5110156;28;20035;-79
2020/12/28 03:55:08;;;;;;;15.83;7.87;;;5.50;92.80;;;;;;5092117;28;20036;-79
2020/12/28 03:57:34;;;;;;;14.10;8.13;;;5.60;92.80;;;;;;5074970;28;20033;-79
2020/12/28 04:00:00;;;;;;;17.77;7.97;;;5.50;92.70;;;;;;5076420;28;20036;-79
2020/12/28 04:02:26;;;;;;;16.13;8.73;;;5.40;92.60;;;;;;5076130;28;20085;-79
2020/12/28 04:04:52;;;;;;;14.33;7.83;;;5.50;92.70;;;;;;5077622;28;20488;-79
2020/12/28 04:07:18;;;;;;;15.07;7.73;;;5.40;92.60;;;;;;5075466;28;20107;-79
2020/12/28 04:09:43;;;;;;;18.77;8.43;;;5.40;92.70;;;;;;5074754;28;20028;-79
2020/12/28 04:12:09;;;;;;;13.27;7.07;;;5.40;92.70;;;;;;5058158;28;20025;-79
2020/12/28 04:14:34;;;;;;;13.90;7.47;;;5.40;92.70;;;;;;5079022;28;20036;-79
2020/12/28 04:17:00;;;;;;;15.00;8.03;;;5.40;92.80;;;;;;5096102;28;20024;-79
2020/12/28 04:19:25;;;;;;;11.57;6.73;;;5.40;92.70;;;;;;5096003;28;20028;-80
2020/12/28 04:21:51;;;;;;;13.63;6.87;;;5.40;92.70;;;;;;5095977;28;20376;-79
2020/12/28 04:24:17;;;;;;;18.17;7.17;;;5.30;92.70;;;;;;5095682;28;20032;-78
2020/12/28 04:26:43;;;;;;;14.47;8.13;;;5.30;92.70;;;;;;5077216;28;20530;-78
2020/12/28 04:29:11;;;;;;;13.87;8.50;;;5.30;92.80;;;;;;5096013;28;20366;-78
2020/12/28 04:31:36;;;;;;;14.33;8.60;;;5.30;92.80;;;;;;5095907;28;20048;-78
2020/12/28 04:34:02;;;;;;;17.73;9.40;;;5.20;92.70;;;;;;5095655;28;20047;-79
2020/12/28 04:36:28;;;;;;;13.40;7.50;;;5.20;92.70;;;;;;5078196;28;20085;-78
2020/12/28 04:38:53;;;;;;;12.97;8.03;;;5.10;92.60;;;;;;5075442;28;20032;-78
2020/12/28 04:41:19;;;;;;;15.00;8.10;;;5.10;92.60;;;;;;5074219;28;20036;-79
2020/12/28 04:43:45;;;;;;;13.83;7.70;;;5.00;92.50;;;;;;5073994;28;20127;-79
2020/12/28 04:46:11;;;;;;;11.80;7.07;;;5.00;92.60;;;;;;5057703;28;20107;-79
2020/12/28 04:48:38;;;;;;;16.90;7.10;;;4.90;92.60;;;;;;5074495;28;20031;-78
2020/12/28 04:51:04;;;;;;;11.80;7.10;;;4.90;92.70;;;;;;5075183;28;20029;-78
2020/12/28 04:53:30;;;;;;;12.63;6.87;;;4.90;92.70;;;;;;5073887;28;20024;-78
2020/12/28 04:55:56;;;;;;;13.20;6.40;;;4.80;92.80;;;;;;5069604;28;20149;-78
2020/12/28 04:58:22;;;;;;;13.43;5.87;;;4.80;92.90;;;;;;5095291;28;20072;-78
2020/12/28 05:00:58;;;;;;;11.13;5.87;;;4.80;92.90;;;;;;5092996;28;20111;-79
2020/12/28 05:03:25;;;;;;;11.67;5.70;;;4.80;92.90;;;;;;5093656;28;20027;-79
2020/12/28 05:05:51;;;;;;;9.10;5.33;;;4.70;92.90;;;;;;5084201;28;20177;-78
2020/12/28 05:08:18;;;;;;;10.97;5.67;;;4.70;92.90;;;;;;5074270;28;20429;-78
2020/12/28 05:10:44;;;;;;;11.83;5.60;;;4.60;92.90;;;;;;5074856;28;20031;-78
2020/12/28 05:13:11;;;;;;;12.07;5.07;;;4.60;93.10;;;;;;5073543;28;20020;-79
2020/12/28 05:15:55;;;;;;;11.57;5.50;;;4.60;93.10;;;;;;5075965;28;20031;-79
2020/12/28 05:18:21;;;;;;;7.63;4.32;;;4.60;93.20;;;;;;5073342;28;20032;-78
2020/12/28 05:20:48;;;;;;;11.43;5.77;;;4.60;93.30;;;;;;5074823;28;20031;-79
2020/12/28 05:23:15;;;;;;;11.37;5.10;;;4.60;93.40;;;;;;5073148;28;20025;-79
2020/12/28 05:25:59;;;;;;;9.83;4.70;;;4.70;93.50;;;;;;5074982;28;20039;-79
2020/12/28 05:28:28;;;;;;;9.90;4.55;;;4.70;93.50;;;;;;5073162;28;20086;-79
2020/12/28 05:31:00;;;;;;;12.97;4.73;;;4.70;93.50;;;;;;5074265;28;20013;-78
2020/12/28 05:33:34;;;;;;;10.97;5.40;;;4.70;93.50;;;;;;5074501;28;20024;-78
2020/12/28 05:36:00;;;;;;;12.40;5.27;;;4.70;93.50;;;;;;5075581;28;20458;-79
2020/12/28 05:38:30;;;;;;;7.33;4.23;;;4.70;93.50;;;;;;5056465;28;20442;-79
2020/12/28 05:41:03;;;;;;;9.77;4.83;;;4.70;93.50;;;;;;5072959;28;20020;-78
2020/12/28 05:43:30;;;;;;;8.52;3.80;;;4.70;93.60;;;;;;5056214;28;20044;-78
2020/12/28 05:45:55;;;;;;;10.33;5.17;;;4.70;93.70;;;;;;5079473;28;20027;-78
2020/12/28 05:48:25;;;;;;;10.93;5.20;;;4.80;93.80;;;;;;5093136;28;20380;-78
2020/12/28 05:50:58;;;;;;;11.13;5.00;;;4.80;93.80;;;;;;5094267;28;20016;-79
2020/12/28 05:53:26;;;;;;;10.17;5.33;;;4.90;93.80;;;;;;5093068;28;20031;-78
2020/12/28 05:55:53;;;;;;;11.87;5.17;;;4.90;93.80;;;;;;5093745;28;20031;-79
2020/12/28 05:58:20;;;;;;;11.73;5.47;;;4.90;93.70;;;;;;5092920;28;20027;-79
2020/12/28 06:00:48;;;;;;;10.73;4.87;;;4.90;93.70;;;;;;5092995;28;20031;-79
2020/12/28 06:03:24;;;;;;;11.80;5.77;;;4.90;93.70;;;;;;5094109;28;20060;-79
2020/12/28 06:05:52;;;;;;;10.80;5.40;;;4.90;94.00;;;;;;5089266;28;20059;-79
2020/12/28 06:08:18;;;;;;;9.20;5.07;;;4.90;93.70;;;;;;5072544;28;20021;-79
2020/12/28 06:10:43;;;;;;;10.80;5.90;;;5.00;94.00;;;;;;5072523;28;20035;-80
2020/12/28 06:13:09;;;;;;;10.60;5.23;;;5.00;94.00;;;;;;5073671;28;20031;-79
2020/12/28 06:15:35;;;;;;;11.77;5.90;;;5.00;93.80;;;;;;5072192;28;20035;-79
2020/12/28 06:18:00;;;;;;;11.90;5.93;;;5.00;93.80;;;;;;5072132;28;20494;-79
2020/12/28 06:20:31;;;;;;;8.67;5.07;;;5.00;93.80;;;;;;5072333;28;20035;-79
2020/12/28 06:23:04;;;;;;;10.97;5.73;;;5.00;93.80;;;;;;5073289;28;20034;-80
2020/12/28 06:25:30;;;;;;;12.10;5.70;;;5.10;93.90;;;;;;5072286;28;20023;-79
2020/12/28 06:27:56;;;;;;;10.07;5.20;;;5.10;93.80;;;;;;5074319;28;20028;-79
2020/12/28 06:30:23;;;;;;;12.60;5.33;;;5.10;93.80;;;;;;5072308;28;20039;-79
2020/12/28 06:32:50;;;;;;;10.67;6.37;;;5.10;93.80;;;;;;5073416;28;20031;-79
2020/12/28 06:35:17;;;;;;;11.13;5.37;;;5.20;93.80;;;;;;5073390;28;20388;-79
2020/12/28 06:37:52;;;;;;;12.83;5.80;;;5.20;93.80;;;;;;5073815;28;20480;-79
2020/12/28 06:40:29;;;;;;;12.17;5.87;;;5.20;93.80;;;;;;5073327;28;20035;-79
2020/12/28 06:43:06;;;;;;;11.13;5.60;;;5.20;93.80;;;;;;5073128;28;20045;-79
2020/12/28 06:45:31;;;;;;;11.17;6.17;;;5.20;93.70;;;;;;5073995;28;20017;-79
2020/12/28 06:47:57;;;;;;;10.20;5.53;;;5.20;93.70;;;;;;5091490;28;20368;-79
2020/12/28 06:50:22;;;;;;;12.73;5.70;;;5.20;93.70;;;;;;5093494;28;20039;-79
2020/12/28 06:52:52;;;;;;;13.50;6.80;;;5.20;93.70;;;;;;5058786;28;20392;-80
2020/12/28 06:55:17;;;;;;;13.30;6.47;;;5.20;93.70;;;;;;5075705;28;20616;-79
2020/12/28 06:57:43;;;;;;;14.23;7.50;;;5.20;93.60;;;;;;5075627;28;20047;-80
2020/12/28 07:00:18;;;;;;;11.87;6.63;;;5.20;93.60;;;;;;5073290;28;20106;-79
2020/12/28 07:02:51;;;;;;;12.43;6.33;;;5.20;93.60;;;;;;5071885;28;20078;-79
2020/12/28 07:05:24;;;;;;;11.43;6.87;;;5.10;93.60;;;;;;5073123;28;20481;-79
2020/12/28 07:07:51;;;;;;;11.05;6.15;;;5.20;93.70;;;;;;5088892;28;20036;-79
2020/12/28 07:10:21;;;;;;;12.10;7.13;;;5.10;93.70;;;;;;5092117;28;20024;-79
2020/12/28 07:12:48;;;;;;;14.97;7.47;;;5.10;93.70;;;;;;5093757;28;20034;-79
2020/12/28 07:15:15;;;;;;;11.80;7.27;;;5.20;93.80;;;;;;5092008;28;20468;-79
2020/12/28 07:17:40;;;;;;;13.63;7.67;;;5.20;93.80;;;;;;5092390;28;20036;-78
2020/12/28 07:20:11;;;;;;;13.97;7.80;;;5.20;93.80;;;;;;5092040;28;20491;-79
2020/12/28 07:22:38;;;;;;;14.97;8.27;;;5.20;93.80;;;;;;5091847;28;20035;-79
2020/12/28 07:25:06;;;;;;;12.40;7.83;;;5.20;94.10;;;;;;5093133;28;20035;-79
2020/12/28 07:27:32;;;;;;;16.63;8.13;;;5.20;93.80;;;;;;5078218;28;20033;-79
2020/12/28 07:29:58;;;;;;;13.37;8.07;;;5.20;93.80;;;;;;5074070;28;20103;-79
2020/12/28 07:32:24;;;;;;;16.33;8.30;;;5.30;93.80;;;;;;5058766;28;20059;-79
2020/12/28 07:34:54;;;;;;;14.33;8.13;;;5.20;93.80;;;;;;5076647;28;20032;-79
2020/12/28 07:37:20;;;;;;;14.60;8.37;;;5.30;93.80;;;;;;5087586;28;20040;-79
2020/12/28 07:39:50;;;;;;;14.03;7.83;;;5.30;93.80;;;;;;5095642;28;20123;-79
2020/12/28 07:42:24;;;;;;;17.97;7.83;;;5.30;93.70;;;;;;5095514;28;20122;-79
2020/12/28 07:45:00;;;;;;;15.75;8.27;;;5.30;93.50;;;;;;5096669;28;20028;-79
2020/12/28 07:47:50;;;;;;;13.30;7.60;;;5.30;93.50;;;;;;5084494;28;20028;-79
2020/12/28 07:50:16;;;;;;;14.47;7.67;;;5.30;93.40;;;;;;5094720;28;20028;-81
2020/12/28 07:53:02;;;;;;;14.47;7.03;;;5.20;93.40;;;;;;5096300;28;20028;-81
2020/12/28 07:55:36;;;;;;;12.80;7.20;;;5.30;93.40;;;;;;5096482;28;20062;-81
2020/12/28 07:58:09;;;;;;;;;;;5.30;93.30;;;;;;5096906;28;20379;-81
2020/12/28 08:00:39;;;;;;;12.57;6.07;;;5.20;93.30;;;;;;5074911;28;19966;-81
2020/12/28 08:03:16;;;;;;;14.10;5.77;;;5.20;93.20;;;;;;5076662;28;20028;-81
2020/12/28 08:05:44;;;;;;;10.00;5.47;;;5.20;93.20;;;;;;5074844;28;20020;-81
2020/12/28 08:08:20;;;;;;;8.23;4.70;;;5.20;93.10;;;;;;5074820;28;20024;-81
2020/12/28 08:10:54;;;;;;;9.17;5.00;;;5.30;93.20;;;;;;5095125;28;20032;-80
2020/12/28 08:13:31;;;;;;;9.98;4.70;;;5.20;93.20;;;;;;5094786;28;20486;-80
2020/12/28 08:16:12;;;;;;;11.47;4.83;;;5.20;93.20;;;;;;5094238;28;20106;-80
2020/12/28 08:18:52;;;;;;;9.63;4.67;;;5.20;93.20;;;;;;5092215;28;20494;-81
2020/12/28 08:21:19;;;;;;;8.63;4.60;;;5.20;93.20;;;;;;5074367;28;20031;-81
2020/12/28 08:23:52;;;;;;;11.80;4.70;;;5.30;93.20;;;;;;5074132;28;20060;-81
2020/12/28 08:26:28;;;;;;;8.90;4.97;;;5.20;93.20;;;;;;5074610;28;20116;-80
2020/12/28 08:28:56;;;;;;;12.50;5.20;;;5.30;93.30;;;;;;5077671;28;20024;-80
2020/12/28 08:31:30;;;;;;;10.80;5.17;;;5.30;93.30;;;;;;5079408;28;20028;-81
2020/12/28 08:34:02;;;;;;;;;;;5.30;93.40;;;;;;5077489;28;20034;-80
2020/12/28 08:36:29;;;;;;;6.57;3.43;;;5.40;93.40;;;;;;5081797;28;19909;-80
2020/12/28 08:38:55;;;;;;;7.57;3.37;;;5.40;93.40;;;;;;5081763;28;20016;-80
2020/12/28 08:41:20;;;;;;;10.17;4.43;;;5.50;93.50;;;;;;5081823;28;20488;-80
2020/12/28 08:43:47;;;;;;;9.30;4.30;;;5.50;93.60;;;;;;5080772;28;20045;-80
2020/12/28 08:46:13;;;;;;;7.10;3.87;;;5.60;93.60;;;;;;5088698;28;20032;-80
2020/12/28 08:48:42;;;;;;;8.40;4.40;;;5.60;93.70;;;;;;5086993;28;20499;-80
2020/12/28 08:51:19;;;;;;;8.47;4.57;;;5.70;93.70;;;;;;5075021;28;20350;-80
2020/12/28 08:53:49;;;;;;;8.47;4.20;;;5.70;93.90;;;;;;5083389;28;20027;-80
2020/12/28 08:56:16;;;;;;;8.97;4.33;;;5.70;93.50;;;;;;5088681;28;20028;-80
2020/12/28 08:58:43;;;;;;;6.63;4.07;;;5.70;93.40;;;;;;5090810;28;20143;-80
2020/12/28 09:01:08;;;;;;;7.73;4.20;;;5.70;93.30;;;;;;5073638;28;20032;-80
2020/12/28 09:03:38;;;;;;;8.77;4.37;;;5.70;93.20;;;;;;5073845;28;20119;-80
2020/12/28 09:06:04;;;;;;;7.93;4.23;;;5.60;93.20;;;;;;5056958;28;20025;-80
2020/12/28 09:08:30;;;;;;;10.33;4.03;;;5.60;93.50;;;;;;5073381;28;20114;-80
2020/12/28 09:10:56;;;;;;;6.47;4.00;;;5.60;93.20;;;;;;5073602;28;20490;-80
2020/12/28 09:13:22;;;;;;;9.10;3.90;;;5.60;93.20;;;;;;5091420;28;20120;-80
2020/12/28 09:15:48;;;;;;;7.90;4.33;;;5.60;93.10;;;;;;5088638;28;20107;-74
2020/12/28 09:18:13;;;;;;;6.67;4.00;;;5.60;93.10;;;;;;5077029;28;20025;-75
2020/12/28 09:20:39;;;;;;;8.33;4.67;;;5.60;93.00;;;;;;5078125;28;20028;-75
2020/12/28 09:23:05;;;;;;;7.53;3.87;;;5.70;93.10;;;;;;5061070;28;20040;-75
2020/12/28 09:25:30;;;;;;;7.23;4.23;;;5.70;93.10;;;;;;5085924;28;20024;-74
2020/12/28 09:27:56;;;;;;;7.23;4.00;;;5.70;93.00;;;;;;5084027;28;20037;-75
2020/12/28 09:30:23;;;;;;;7.17;4.23;;;5.80;93.10;;;;;;5080018;28;20040;-74
2020/12/28 09:32:48;;;;;;;9.50;4.73;;;5.90;93.00;;;;;;5074711;28;20028;-75
2020/12/28 09:35:14;;;;;;;8.67;4.03;;;6.00;92.80;;;;;;5078058;28;20020;-75
2020/12/28 09:37:39;;;;;;;6.57;3.60;;;6.10;92.80;;;;;;5075990;28;20025;-75
2020/12/28 09:40:06;;;;;;;5.77;3.07;;;6.30;93.00;;;;;;5056607;28;20423;-75
2020/12/28 09:42:31;;;;;;;5.03;2.60;;;6.50;93.20;;;;;;5085339;28;20016;-75
2020/12/28 09:44:57;;;;;;;5.63;2.17;;;6.90;93.50;;;;;;5051642;28;20384;-76
2020/12/28 09:47:23;;;;;;;3.97;1.67;;;7.30;93.50;;;;;;5079663;28;20051;-76
2020/12/28 09:49:48;;;;;;;4.70;1.47;;;7.80;93.50;;;;;;5072922;28;20089;-76
2020/12/28 09:52:14;;;;;;;6.60;1.73;;;8.20;93.30;;;;;;5050756;28;20024;-76
2020/12/28 09:54:39;;;;;;;2.77;1.20;;;8.60;92.50;;;;;;5063941;28;20056;-76
2020/12/28 09:57:06;;;;;;;3.33;1.20;;;9.00;92.00;;;;;;5062862;28;20031;-76
2020/12/28 09:59:39;;;;;;;4.53;1.10;;;9.00;89.00;;;;;;5080919;28;20024;-76
2020/12/28 10:02:06;;;;;;;3.10;1.33;;;9.00;87.40;;;;;;5073139;28;20110;-76
2020/12/28 10:04:31;;;;;;;5.07;1.58;;;9.30;87.70;;;;;;5050948;28;20028;-77
2020/12/28 10:06:57;;;;;;;3.70;1.10;;;9.60;88.30;;;;;;5083216;28;20032;-77
2020/12/28 10:09:23;;;;;;;4.32;1.00;;;10.00;87.60;;;;;;5061602;28;20042;-77
2020/12/28 10:11:48;;;;;;;1.80;0.80;;;10.20;85.60;;;;;;5073199;28;20028;-77
2020/12/28 10:14:15;;;;;;;3.03;0.90;;;10.30;82.90;;;;;;5081101;28;20040;-76
2020/12/28 10:16:41;;;;;;;2.47;0.90;;;10.20;82.00;;;;;;5071386;28;20028;-76
2020/12/28 10:19:06;;;;;;;2.75;0.88;;;10.50;83.80;;;;;;5057031;28;20046;-77
2020/12/28 10:21:32;;;;;;;4.13;0.80;;;11.00;85.10;;;;;;5078781;28;20499;-76
2020/12/28 10:23:58;;;;;;;2.22;0.65;;;11.50;85.10;;;;;;5083918;28;20044;-76
2020/12/28 10:26:26;;;;;;;1.90;0.70;;;11.90;84.70;;;;;;5064051;28;20033;-77
2020/12/28 10:28:53;;;;;;;2.30;0.70;;;12.30;82.10;;;;;;5083002;28;20534;-76
2020/12/28 10:31:19;;;;;;;2.88;0.70;;;12.40;77.80;;;;;;5081890;28;20020;-76
2020/12/28 10:33:47;;;;;;;3.33;0.82;;;12.50;74.70;;;;;;5077921;28;20024;-76
2020/12/28 10:36:31;;;;;;;2.42;0.75;;;12.30;72.10;;;;;;5086001;28;20487;-76
2020/12/28 10:38:59;;;;;;;6.75;0.95;;;12.10;71.00;;;;;;5063929;28;20036;-76
2020/12/28 10:41:27;;;;;;;3.25;0.75;;;11.90;71.40;;;;;;5065590;28;20055;-76
2020/12/28 10:43:52;;;;;;;2.70;0.70;;;12.00;71.90;;;;;;5081039;28;20098;-76
2020/12/28 10:46:18;;;;;;;3.95;0.90;;;11.90;70.70;;;;;;5080090;28;20051;-76
2020/12/28 10:48:44;;;;;;;4.00;0.60;;;12.00;70.70;;;;;;5064606;28;20116;-76
2020/12/28 10:51:11;;;;;;;1.77;0.47;;;12.00;70.00;;;;;;5087227;28;20020;-76
2020/12/28 10:53:37;;;;;;;5.85;1.05;;;11.90;69.30;;;;;;5081381;28;20028;-76
2020/12/28 10:56:02;;;;;;;3.72;0.73;;;12.00;70.30;;;;;;5084694;28;20036;-76
2020/12/28 10:58:28;;;;;;;2.17;0.50;;;12.30;71.30;;;;;;5094277;28;20095;-76
2020/12/28 11:00:54;;;;;;;2.67;0.55;;;12.40;70.10;;;;;;5069627;28;20121;-76
2020/12/28 11:03:20;;;;;;;1.83;0.55;;;12.50;69.60;;;;;;5090471;28;20024;-76
2020/12/28 11:05:46;;;;;;;4.53;0.85;;;12.40;68.90;;;;;;5081184;28;20030;-76
2020/12/28 11:08:12;;;;;;;2.08;0.52;;;12.40;68.30;;;;;;5083967;28;20052;-76
2020/12/28 11:10:38;;;;;;;4.90;0.50;;;12.40;68.60;;;;;;5085765;28;20043;-76
2020/12/28 11:13:04;;;;;;;4.68;0.70;;;12.30;68.00;;;;;;5085427;28;20101;-76
2020/12/28 11:15:29;;;;;;;3.58;1.10;;;12.10;67.80;;;;;;5086714;28;20460;-76
2020/12/28 11:17:55;;;;;;;2.80;0.57;;;11.80;67.10;;;;;;5071705;28;20123;-75
2020/12/28 11:20:21;;;;;;;3.22;0.60;;;11.60;68.10;;;;;;5086053;28;20035;-81
2020/12/28 11:22:48;;;;;;;5.90;0.70;;;11.50;68.90;;;;;;5065666;28;20025;-81
2020/12/28 11:25:16;;;;;;;2.33;0.73;;;11.30;69.20;;;;;;5083564;28;20053;-81
2020/12/28 11:27:41;;;;;;;2.03;0.47;;;11.20;69.80;;;;;;5086075;28;20040;-81
2020/12/28 11:30:07;;;;;;;3.65;0.70;;;11.10;69.30;;;;;;5083665;28;20029;-81
2020/12/28 11:32:33;;;;;;;4.18;0.60;;;11.00;68.90;;;;;;5085036;28;20074;-81
2020/12/28 11:34:58;;;;;;;3.90;0.70;;;10.90;68.90;;;;;;5070480;28;20020;-81
2020/12/28 11:37:25;;;;;;;3.07;0.60;;;10.80;68.90;;;;;;5087167;28;20060;-81
2020/12/28 11:39:50;;;;;;;2.60;0.50;;;10.60;69.40;;;;;;5082623;28;20028;-81
2020/12/28 11:42:18;;;;;;;3.50;0.87;;;10.50;68.90;;;;;;5091469;28;20028;-81
2020/12/28 11:44:44;;;;;;;4.17;0.57;;;10.40;69.50;;;;;;5068416;28;20437;-81
2020/12/28 11:47:10;;;;;;;3.13;0.70;;;10.40;69.30;;;;;;5087673;28;20043;-80
2020/12/28 11:49:36;;;;;;;3.17;0.97;;;10.40;70.10;;;;;;5086566;28;20056;-80
2020/12/28 11:52:02;;;;;;;3.90;0.83;;;10.40;70.30;;;;;;5087623;28;20062;-81
2020/12/28 11:54:28;;;;;;;2.40;0.60;;;10.40;70.40;;;;;;5088408;28;20066;-81
2020/12/28 11:56:53;;;;;;;2.63;0.70;;;10.50;70.80;;;;;;5069414;28;20574;-82
2020/12/28 11:59:19;;;;;;;2.00;0.60;;;10.50;70.60;;;;;;5086124;28;20032;-81
2020/12/28 12:01:48;;;;;;;2.90;0.80;;;10.50;71.00;;;;;;5083230;28;20028;-81
2020/12/28 12:04:15;;;;;;;2.77;0.73;;;10.50;70.60;;;;;;5092363;28;20085;-81
2020/12/28 12:06:41;;;;;;;3.90;0.73;;;10.40;70.30;;;;;;5092094;28;20501;-81
2020/12/28 12:09:11;;;;;;;2.73;0.77;;;10.40;69.80;;;;;;5088267;28;20035;-81
2020/12/28 12:11:40;;;;;;;4.90;1.17;;;10.30;69.40;;;;;;5084437;28;20091;-81
2020/12/28 12:14:05;;;;;;;3.93;0.80;;;10.20;69.60;;;;;;5081568;28;20047;-80
2020/12/28 12:16:31;;;;;;;4.67;0.70;;;10.10;69.50;;;;;;5057273;28;20477;-81
2020/12/28 12:18:57;;;;;;;3.10;0.80;;;10.00;69.90;;;;;;5084079;28;20028;-80
2020/12/28 12:21:22;;;;;;;4.73;1.13;;;9.90;69.70;;;;;;5068063;28;20016;-81
2020/12/28 12:23:48;;;;;;;4.67;1.10;;;9.80;69.80;;;;;;5070400;28;20074;-80
2020/12/28 12:26:18;;;;;;;2.30;0.77;;;9.70;70.40;;;;;;5086204;28;20391;-80
2020/12/28 12:28:43;;;;;;;2.40;0.80;;;9.70;70.50;;;;;;5081602;28;20039;-80
2020/12/28 12:31:09;;;;;;;2.97;0.77;;;9.50;71.00;;;;;;5060784;28;20032;-81
2020/12/28 12:33:34;;;;;;;2.97;1.00;;;9.40;70.80;;;;;;5048556;28;20397;-81
2020/12/28 12:36:00;;;;;;;4.87;1.23;;;9.40;71.20;;;;;;5085233;28;20043;-80
2020/12/28 12:38:26;;;;;;;4.50;1.13;;;9.30;71.50;;;;;;5085280;28;20035;-80
2020/12/28 12:40:51;;;;;;;3.73;1.07;;;9.30;72.30;;;;;;5077399;28;20381;-80
2020/12/28 12:43:17;;;;;;;6.30;1.23;;;9.20;72.00;;;;;;5100757;28;20047;-80
2020/12/28 12:45:43;;;;;;;4.13;0.90;;;9.10;72.10;;;;;;5114589;28;20123;-80
2020/12/28 12:48:08;;;;;;;4.43;1.10;;;9.10;72.00;;;;;;5099905;28;20531;-81
2020/12/28 12:50:34;;;;;;;5.13;0.90;;;9.10;72.30;;;;;;5082610;28;20365;-80